createdAt,value
2022-08-18T00:01:23.385Z,55.95
2022-08-18T00:03:57.160Z,55.89
2022-08-18T00:06:30.049Z,55.61
2022-08-18T00:09:01.871Z,55.80
2022-08-18T00:11:41.604Z,55.27
2022-08-18T00:14:11.769Z,55.21
2022-08-18T00:16:46.481Z,55.04
2022-08-18T00:19:13.248Z,55.03
2022-08-18T00:21:40.116Z,54.99
2022-08-18T00:24:06.877Z,54.79
2022-08-18T00:26:36.793Z,55.01
2022-08-18T00:29:03.891Z,55.47
2022-08-18T00:31:31.572Z,55.39
2022-08-18T00:33:58.476Z,55.35
2022-08-18T00:36:25.255Z,55.39
2022-08-18T00:38:52.009Z,54.81
2022-08-18T00:41:18.762Z,54.90
2022-08-18T00:43:48.488Z,54.89
2022-08-18T00:46:41.132Z,54.51
2022-08-18T00:49:07.939Z,54.93
2022-08-18T00:51:37.448Z,54.98
2022-08-18T00:54:10.094Z,55.02
2022-08-18T00:56:44.471Z,55.31
2022-08-18T00:59:24.629Z,55.31
2022-08-18T01:01:51.710Z,55.63
2022-08-18T01:04:25.975Z,55.59
2022-08-18T01:06:55.086Z,55.92
2022-08-18T01:09:22.593Z,56.11
2022-08-18T01:11:51.357Z,56.58
2022-08-18T01:14:18.541Z,56.39
2022-08-18T01:17:07.685Z,56.38
2022-08-18T01:19:54.105Z,55.93
2022-08-18T01:22:40.767Z,55.89
2022-08-18T01:25:26.522Z,55.96
2022-08-18T01:27:57.007Z,55.66
2022-08-18T01:30:27.920Z,56.23
2022-08-18T01:32:54.560Z,56.13
2022-08-18T01:35:25.546Z,56.43
2022-08-18T01:37:53.603Z,56.74
2022-08-18T01:41:17.270Z,56.84
2022-08-18T01:43:09.306Z,56.83
2022-08-18T01:45:35.952Z,56.94
2022-08-18T01:48:04.585Z,57.06
2022-08-18T01:50:34.292Z,56.46
2022-08-18T01:53:02.542Z,56.78
2022-08-18T01:55:29.180Z,57.20
2022-08-18T01:57:56.135Z,57.30
2022-08-18T02:00:22.942Z,57.40
2022-08-18T02:02:57.207Z,57.23
2022-08-18T02:05:36.475Z,57.55
2022-08-18T02:08:05.406Z,57.25
2022-08-18T02:10:33.472Z,57.09
2022-08-18T02:13:00.523Z,56.82
2022-08-18T02:15:28.166Z,56.94
2022-08-18T02:17:54.784Z,57.03
2022-08-18T02:20:21.582Z,57.37
2022-08-18T02:22:49.118Z,57.36
2022-08-18T02:25:16.932Z,57.24
2022-08-18T02:27:44.363Z,57.24
2022-08-18T02:30:14.873Z,57.09
2022-08-18T02:32:42.302Z,56.53
2022-08-18T02:35:11.963Z,56.72
2022-08-18T02:37:42.286Z,56.71
2022-08-18T02:40:15.001Z,56.77
2022-08-18T02:42:42.960Z,57.15
2022-08-18T02:45:10.096Z,57.51
2022-08-18T02:47:36.987Z,57.69
2022-08-18T02:50:04.163Z,57.50
2022-08-18T02:52:33.630Z,57.03
2022-08-18T02:55:03.991Z,57.00
2022-08-18T02:57:31.266Z,56.71
2022-08-18T02:59:58.085Z,56.46
2022-08-18T03:02:26.859Z,56.46
2022-08-18T03:04:53.840Z,56.67
2022-08-18T03:07:20.447Z,56.87
2022-08-18T03:09:47.046Z,57.25
2022-08-18T03:12:13.671Z,57.00
2022-08-18T03:14:40.327Z,57.04
2022-08-18T03:17:08.846Z,56.77
2022-08-18T03:19:36.348Z,56.72
2022-08-18T03:22:03.715Z,56.88
2022-08-18T03:24:32.247Z,56.83
2022-08-18T03:26:59.959Z,57.01
2022-08-18T03:29:31.964Z,56.81
2022-08-18T03:32:03.185Z,57.08
2022-08-18T03:34:30.011Z,56.80
2022-08-18T03:36:56.662Z,56.13
2022-08-18T03:39:23.759Z,56.54
2022-08-18T03:42:00.171Z,56.11
2022-08-18T03:44:32.986Z,55.99
2022-08-18T03:47:01.529Z,56.22
2022-08-18T03:49:28.268Z,56.46
2022-08-18T03:51:55.361Z,56.59
2022-08-18T03:54:22.334Z,56.83
2022-08-18T03:56:49.627Z,56.77
2022-08-18T03:59:22.072Z,56.78
2022-08-18T04:01:50.652Z,56.50
2022-08-18T04:04:23.270Z,56.39
2022-08-18T04:06:54.216Z,56.27
2022-08-18T04:09:22.966Z,56.29
2022-08-18T04:11:49.762Z,56.28
2022-08-18T04:14:21.476Z,56.10
2022-08-18T04:16:49.226Z,55.80
2022-08-18T04:19:26.443Z,56.13
2022-08-18T04:21:56.060Z,55.85
2022-08-18T04:24:22.853Z,56.20
2022-08-18T04:26:50.059Z,55.88
2022-08-18T04:29:18.824Z,55.85
2022-08-18T04:31:45.599Z,55.88
2022-08-18T04:34:13.820Z,55.88
2022-08-18T04:36:41.563Z,55.79
2022-08-18T04:39:09.816Z,55.87
2022-08-18T04:41:38.320Z,56.16
2022-08-18T04:44:07.451Z,56.18
2022-08-18T04:46:42.671Z,55.97
2022-08-18T04:49:11.287Z,56.10
2022-08-18T04:52:36.775Z,56.43
2022-08-18T04:54:29.336Z,56.83
2022-08-18T04:56:55.925Z,56.73
2022-08-18T04:59:22.543Z,56.82
2022-08-18T05:01:49.157Z,56.52
2022-08-18T05:04:17.453Z,56.16
2022-08-18T05:06:45.429Z,56.48
2022-08-18T05:09:16.682Z,56.12
2022-08-18T05:11:50.774Z,56.17
2022-08-18T05:14:17.898Z,56.43
2022-08-18T05:16:48.495Z,56.12
2022-08-18T05:19:19.442Z,56.49
2022-08-18T05:21:50.617Z,55.92
2022-08-18T05:24:18.205Z,56.28
2022-08-18T05:26:45.447Z,56.57
2022-08-18T05:29:17.841Z,56.17
2022-08-18T05:31:45.766Z,56.72
2022-08-18T05:34:12.402Z,56.65
2022-08-18T05:36:57.622Z,56.73
2022-08-18T05:39:31.258Z,57.06
2022-08-18T05:42:11.500Z,57.02
2022-08-18T05:44:44.534Z,56.88
2022-08-18T05:47:17.381Z,56.86
2022-08-18T05:49:45.281Z,57.29
2022-08-18T05:52:29.765Z,56.90
2022-08-18T05:55:20.372Z,57.12
2022-08-18T05:57:54.520Z,57.50
2022-08-18T06:00:23.880Z,57.68
2022-08-18T06:03:00.050Z,57.87
2022-08-18T06:05:36.729Z,57.75
2022-08-18T06:08:09.920Z,57.46
2022-08-18T06:10:38.056Z,58.11
2022-08-18T06:13:08.547Z,58.17
2022-08-18T06:15:41.199Z,58.53
2022-08-18T06:18:28.958Z,57.96
2022-08-18T06:21:14.216Z,58.24
2022-08-18T06:24:23.015Z,58.62
2022-08-18T06:26:49.557Z,58.57
2022-08-18T06:29:28.331Z,58.57
2022-08-18T06:32:15.843Z,58.84
2022-08-18T06:35:23.836Z,58.90
2022-08-18T06:38:47.543Z,58.64
2022-08-18T06:41:42.215Z,59.06
2022-08-18T06:44:11.792Z,59.18
2022-08-18T06:47:04.362Z,59.04
2022-08-18T06:49:40.416Z,59.20
2022-08-18T06:52:26.903Z,59.85
2022-08-18T06:54:55.095Z,59.78
2022-08-18T06:57:27.805Z,60.31
2022-08-18T06:59:56.686Z,60.69
2022-08-18T07:02:41.692Z,61.02
2022-08-18T07:05:29.884Z,61.00
2022-08-18T07:08:07.486Z,61.76
2022-08-18T07:10:42.185Z,59.98
2022-08-18T07:13:30.166Z,59.88
2022-08-18T07:16:47.119Z,59.37
2022-08-18T07:19:11.984Z,59.11
2022-08-18T07:21:43.130Z,59.25
2022-08-18T07:24:24.235Z,59.37
2022-08-18T07:27:05.422Z,58.94
2022-08-18T07:29:38.625Z,59.33
2022-08-18T07:32:20.759Z,59.23
2022-08-18T07:34:53.671Z,58.98
2022-08-18T07:37:31.197Z,58.91
2022-08-18T07:40:28.032Z,58.92
2022-08-18T07:43:09.558Z,58.52
2022-08-18T07:45:42.219Z,58.65
2022-08-18T07:51:09.228Z,58.55
2022-08-18T07:53:54.603Z,58.61
2022-08-18T07:56:38.155Z,58.48
2022-08-18T07:59:41.256Z,58.37
2022-08-18T08:02:15.861Z,58.34
2022-08-18T08:04:48.794Z,58.50
2022-08-18T08:07:24.564Z,58.29
2022-08-18T08:10:15.958Z,58.21
2022-08-18T08:13:37.049Z,58.21
2022-08-18T08:16:09.778Z,57.61
2022-08-18T08:19:58.466Z,57.81
2022-08-18T08:22:26.994Z,57.77
2022-08-18T08:25:42.858Z,57.90
2022-08-18T08:28:10.193Z,57.79
2022-08-18T08:31:18.988Z,57.98
2022-08-18T08:34:05.287Z,57.65
2022-08-18T08:36:36.246Z,57.95
2022-08-18T08:39:13.014Z,57.45
2022-08-18T08:41:45.751Z,57.32
2022-08-18T08:44:22.832Z,57.38
2022-08-18T08:47:13.178Z,57.43
2022-08-18T08:50:15.286Z,57.65
2022-08-18T08:52:44.822Z,57.42
2022-08-18T08:55:18.045Z,57.42
2022-08-18T08:58:09.209Z,57.03
2022-08-18T09:00:37.002Z,57.50
2022-08-18T09:03:30.170Z,57.36
2022-08-18T09:06:00.044Z,57.45
2022-08-18T09:08:35.719Z,57.74
2022-08-18T09:11:23.727Z,57.33
2022-08-18T09:14:10.388Z,57.12
2022-08-18T09:16:44.386Z,57.58
2022-08-18T09:19:20.362Z,57.57
2022-08-18T09:21:59.699Z,57.32
2022-08-18T09:24:40.721Z,57.32
2022-08-18T09:28:07.327Z,57.48
2022-08-18T09:31:02.411Z,57.63
2022-08-18T09:33:41.993Z,58.02
2022-08-18T09:36:44.222Z,57.49
2022-08-18T09:39:54.691Z,58.11
2022-08-18T09:42:48.525Z,58.13
2022-08-18T09:45:34.282Z,57.54
2022-08-18T09:48:20.682Z,58.32
2022-08-18T09:51:10.995Z,58.39
2022-08-18T09:53:45.838Z,58.18
2022-08-18T09:56:19.680Z,58.02
2022-08-18T09:58:58.992Z,58.25
2022-08-18T10:01:33.292Z,58.47
2022-08-18T10:04:15.226Z,58.33
2022-08-18T10:06:48.313Z,58.24
2022-08-18T10:09:27.076Z,58.21
2022-08-18T10:12:27.383Z,57.39
2022-08-18T10:15:09.344Z,57.59
2022-08-18T10:17:42.062Z,58.68
2022-08-18T10:20:27.145Z,58.34
2022-08-18T10:22:54.959Z,59.97
2022-08-18T10:25:32.947Z,58.88
2022-08-18T10:28:01.742Z,59.33
2022-08-18T10:30:36.532Z,59.35
2022-08-18T10:33:55.073Z,58.21
2022-08-18T10:36:37.452Z,58.26
2022-08-18T10:39:10.842Z,58.16
2022-08-18T10:41:41.520Z,58.61
2022-08-18T10:44:27.826Z,58.74
2022-08-18T10:46:56.014Z,58.15
2022-08-18T10:49:26.151Z,57.93
2022-08-18T10:52:18.901Z,58.35
2022-08-18T10:55:02.466Z,58.08
2022-08-18T10:58:07.733Z,58.29
2022-08-18T11:01:00.893Z,57.89
2022-08-18T11:03:51.951Z,57.75
2022-08-18T11:06:25.902Z,57.52
2022-08-18T11:08:58.880Z,57.46
2022-08-18T11:11:39.685Z,57.33
2022-08-18T11:14:12.664Z,57.13
2022-08-18T11:16:59.046Z,57.13
2022-08-18T11:19:25.928Z,56.75
2022-08-18T11:21:53.422Z,56.88
2022-08-18T11:24:22.171Z,56.34
2022-08-18T11:26:54.914Z,56.35
2022-08-18T11:29:34.157Z,56.43
2022-08-18T11:32:12.199Z,55.75
2022-08-18T11:34:53.208Z,56.16
2022-08-18T11:37:52.462Z,55.58
2022-08-18T11:43:12.013Z,55.58
2022-08-18T11:45:45.799Z,55.68
2022-08-18T11:48:52.604Z,55.05
2022-08-18T11:51:24.105Z,54.95
2022-08-18T11:54:19.670Z,55.43
2022-08-18T11:56:46.357Z,55.10
2022-08-18T11:59:25.179Z,54.67
2022-08-18T12:02:19.634Z,54.14
2022-08-18T12:04:50.434Z,54.07
2022-08-18T12:07:27.732Z,54.18
2022-08-18T12:10:19.060Z,54.64
2022-08-18T12:12:53.124Z,54.27
2022-08-18T12:15:23.939Z,54.68
2022-08-18T12:17:52.852Z,54.59
2022-08-18T12:20:20.554Z,53.98
2022-08-18T12:22:49.252Z,53.61
2022-08-18T12:25:24.966Z,53.82
2022-08-18T12:27:52.864Z,53.76
2022-08-18T12:30:20.053Z,53.79
2022-08-18T12:38:21.522Z,54.46
2022-08-18T12:40:48.887Z,54.07
2022-08-18T12:43:17.166Z,54.22
2022-08-18T12:45:44.109Z,54.26
2022-08-18T12:48:10.797Z,53.46
2022-08-18T12:50:49.848Z,54.20
2022-08-18T12:53:29.736Z,53.04
2022-08-18T12:56:19.710Z,53.02
2022-08-18T12:58:47.690Z,53.14
2022-08-18T13:04:11.013Z,53.19
2022-08-18T13:06:54.139Z,52.92
2022-08-18T13:09:47.729Z,52.78
2022-08-18T13:12:17.254Z,53.63
2022-08-18T13:14:45.495Z,53.23
2022-08-18T13:17:32.596Z,53.36
2022-08-18T13:20:02.306Z,53.35
2022-08-18T13:22:32.329Z,53.26
2022-08-18T13:25:01.144Z,53.01
2022-08-18T13:27:33.076Z,52.72
2022-08-18T13:30:03.538Z,52.34
2022-08-18T13:32:59.017Z,51.88
2022-08-18T13:35:26.603Z,51.87
2022-08-18T13:37:56.885Z,51.01
2022-08-18T13:40:23.649Z,51.76
2022-08-18T13:42:57.871Z,51.92
2022-08-18T13:45:26.225Z,52.35
2022-08-18T13:47:52.921Z,51.75
2022-08-18T13:50:20.932Z,51.50
2022-08-18T13:53:00.888Z,51.35
2022-08-18T13:55:29.315Z,51.33
2022-08-18T13:57:56.861Z,50.94
2022-08-18T14:00:29.431Z,50.37
2022-08-18T14:02:58.861Z,49.87
2022-08-18T14:05:36.538Z,50.28
2022-08-18T14:08:19.543Z,50.78
2022-08-18T14:10:53.383Z,50.29
2022-08-18T14:13:24.585Z,50.47
2022-08-18T14:15:54.964Z,50.01
2022-08-18T14:18:29.045Z,50.07
2022-08-18T14:21:16.780Z,49.98
2022-08-18T14:24:10.690Z,50.94
2022-08-18T14:26:50.176Z,50.83
2022-08-18T14:29:46.608Z,50.81
2022-08-18T14:32:06.999Z,50.60
2022-08-18T14:34:33.735Z,50.09
2022-08-18T14:37:00.480Z,50.14
2022-08-18T14:39:28.272Z,50.55
2022-08-18T14:41:58.540Z,50.62
2022-08-18T14:44:31.798Z,50.84
2022-08-18T14:46:59.269Z,50.54
2022-08-18T14:49:28.790Z,51.22
2022-08-18T14:51:57.899Z,50.64
2022-08-18T14:54:28.540Z,50.78
2022-08-18T14:56:57.444Z,51.16
2022-08-18T14:59:25.155Z,51.24
2022-08-18T15:01:53.472Z,50.80
2022-08-18T15:04:21.080Z,50.74
2022-08-18T15:06:56.003Z,50.85
2022-08-18T15:09:27.733Z,50.57
2022-08-18T15:11:58.941Z,51.22
2022-08-18T15:14:33.460Z,50.75
2022-08-18T15:17:13.199Z,51.27
2022-08-18T15:20:01.576Z,50.89
2022-08-18T15:22:50.981Z,50.93
2022-08-18T15:25:41.921Z,51.38
2022-08-18T15:28:16.290Z,51.34
2022-08-18T15:30:51.122Z,50.58
2022-08-18T15:33:23.656Z,50.77
2022-08-18T15:35:51.447Z,51.22
2022-08-18T15:38:19.726Z,51.37
2022-08-18T15:40:53.813Z,50.74
2022-08-18T15:43:25.350Z,50.90
2022-08-18T15:45:57.781Z,50.87
2022-08-18T15:48:26.296Z,51.72
2022-08-18T15:50:53.342Z,51.81
2022-08-18T15:53:23.470Z,51.18
2022-08-18T15:55:50.437Z,52.00
2022-08-18T15:58:22.303Z,51.87
2022-08-18T16:00:53.641Z,51.61
2022-08-18T16:03:21.249Z,51.93
2022-08-18T16:05:54.612Z,52.01
2022-08-18T16:08:24.518Z,51.82
2022-08-18T16:10:52.260Z,52.33
2022-08-18T16:13:19.307Z,52.32
2022-08-18T16:15:48.261Z,51.80
2022-08-18T16:18:15.954Z,52.07
2022-08-18T16:20:43.489Z,52.52
2022-08-18T16:23:14.432Z,52.51
2022-08-18T16:25:43.228Z,52.64
2022-08-18T16:28:12.601Z,52.81
2022-08-18T16:30:39.406Z,52.42
2022-08-18T16:33:07.121Z,52.26
2022-08-18T16:35:35.319Z,52.26
2022-08-18T16:38:08.716Z,52.93
2022-08-18T16:40:36.223Z,52.21
2022-08-18T16:43:04.027Z,52.95
2022-08-18T16:45:33.103Z,52.90
2022-08-18T16:48:00.621Z,52.34
2022-08-18T16:50:27.525Z,52.52
2022-08-18T16:52:54.666Z,52.83
2022-08-18T16:55:21.843Z,53.14
2022-08-18T16:58:06.949Z,52.48
2022-08-18T17:00:54.441Z,53.52
2022-08-18T17:03:40.658Z,53.27
2022-08-18T17:06:13.791Z,53.65
2022-08-18T17:08:41.708Z,53.81
2022-08-18T17:11:13.437Z,53.77
2022-08-18T17:13:41.749Z,53.87
2022-08-18T17:16:09.180Z,53.01
2022-08-18T17:18:36.748Z,53.42
2022-08-18T17:21:07.799Z,53.71
2022-08-18T17:23:38.950Z,53.81
2022-08-18T17:26:07.698Z,54.04
2022-08-18T17:28:44.373Z,54.03
2022-08-18T17:31:22.610Z,53.86
2022-08-18T17:33:49.385Z,54.58
2022-08-18T17:36:21.360Z,54.04
2022-08-18T17:38:54.707Z,54.17
2022-08-18T17:41:23.227Z,54.02
2022-08-18T17:43:50.950Z,54.20
2022-08-18T17:46:28.459Z,54.34
2022-08-18T17:49:16.388Z,55.25
2022-08-18T17:51:52.598Z,54.93
2022-08-18T17:54:37.696Z,54.63
2022-08-18T17:57:12.024Z,54.79
2022-08-18T17:59:53.017Z,54.62
2022-08-18T18:02:29.460Z,56.09
2022-08-18T18:05:05.561Z,56.56
2022-08-18T18:07:52.582Z,57.04
2022-08-18T18:10:27.654Z,57.05
2022-08-18T18:13:16.291Z,56.85
2022-08-18T18:15:48.198Z,57.55
2022-08-18T18:18:42.007Z,58.59
2022-08-18T18:21:21.817Z,58.46
2022-08-18T18:24:23.686Z,59.32
2022-08-18T18:26:52.233Z,59.46
2022-08-18T18:29:32.400Z,59.72
2022-08-18T18:32:02.241Z,59.77
2022-08-18T18:34:45.642Z,59.85
2022-08-18T18:37:25.542Z,59.83
2022-08-18T18:40:01.181Z,60.09
2022-08-18T18:42:30.937Z,60.57
2022-08-18T18:45:00.731Z,60.50
2022-08-18T18:47:49.892Z,60.27
2022-08-18T18:50:52.898Z,61.17
2022-08-18T18:53:30.111Z,61.29
2022-08-18T18:56:27.515Z,60.85
2022-08-18T18:58:58.543Z,61.29
2022-08-18T19:02:34.481Z,61.37
2022-08-18T19:05:13.510Z,62.06
2022-08-18T19:08:15.567Z,62.11
2022-08-18T19:10:54.978Z,62.04
2022-08-18T19:13:33.410Z,62.13
2022-08-18T19:16:25.021Z,61.70
2022-08-18T19:18:57.794Z,62.26
2022-08-18T19:22:05.701Z,62.33
2022-08-18T19:24:29.981Z,62.00
2022-08-18T19:27:00.551Z,62.47
2022-08-18T19:29:31.027Z,61.98
2022-08-18T19:32:17.142Z,62.56
2022-08-18T19:34:52.471Z,62.62
2022-08-18T19:37:43.372Z,62.72
2022-08-18T19:40:37.056Z,63.17
2022-08-18T19:43:11.424Z,62.69
2022-08-18T19:45:59.547Z,63.23
2022-08-18T19:48:51.544Z,62.58
2022-08-18T19:51:24.467Z,62.49
2022-08-18T19:53:59.954Z,62.60
2022-08-18T19:56:35.517Z,63.43
2022-08-18T19:59:24.553Z,63.30
2022-08-18T20:02:19.133Z,62.97
2022-08-18T20:04:51.691Z,63.61
2022-08-18T20:07:53.376Z,63.19
2022-08-18T20:10:40.512Z,63.81
2022-08-18T20:13:26.163Z,63.42
2022-08-18T20:16:11.810Z,63.52
2022-08-18T20:18:49.435Z,63.61
2022-08-18T20:21:16.030Z,63.37
2022-08-18T20:24:23.783Z,63.56
2022-08-18T20:26:50.542Z,64.06
2022-08-18T20:29:21.466Z,63.75
2022-08-18T20:32:03.239Z,63.25
2022-08-18T20:34:31.748Z,63.79
2022-08-18T20:36:59.893Z,63.74
2022-08-18T20:39:39.749Z,64.40
2022-08-18T20:42:35.407Z,63.59
2022-08-18T20:45:14.138Z,63.83
2022-08-18T20:47:47.865Z,64.34
2022-08-18T20:50:23.674Z,63.91
2022-08-18T20:53:12.673Z,64.46
2022-08-18T20:55:45.714Z,63.79
2022-08-18T20:58:17.404Z,64.26
2022-08-18T21:00:48.343Z,64.18
2022-08-18T21:03:16.418Z,63.90
2022-08-18T21:05:44.800Z,63.80
2022-08-18T21:08:16.128Z,64.22
2022-08-18T21:10:54.400Z,63.78
2022-08-18T21:13:42.701Z,64.30
2022-08-18T21:16:12.152Z,64.36
2022-08-18T21:18:40.250Z,63.85
2022-08-18T21:21:26.758Z,63.68
2022-08-18T21:23:55.675Z,64.27
2022-08-18T21:26:22.754Z,63.90
2022-08-18T21:28:55.411Z,63.62
2022-08-18T21:31:42.094Z,64.41
2022-08-18T21:34:34.113Z,63.71
2022-08-18T21:37:06.401Z,64.08
2022-08-18T21:39:33.380Z,63.80
2022-08-18T21:42:00.177Z,63.78
2022-08-18T21:44:41.755Z,63.95
2022-08-18T21:47:14.033Z,63.41
2022-08-18T21:50:23.197Z,63.36
2022-08-18T21:52:52.784Z,63.28
2022-08-18T21:55:33.335Z,63.18
2022-08-18T21:58:05.051Z,63.32
2022-08-18T22:00:43.877Z,63.42
2022-08-18T22:03:16.736Z,63.70
2022-08-18T22:05:58.994Z,63.30
2022-08-18T22:08:29.834Z,63.32
2022-08-18T22:11:47.383Z,63.72
2022-08-18T22:14:28.672Z,63.80
2022-08-18T22:17:24.387Z,64.15
2022-08-18T22:19:51.194Z,63.81
2022-08-18T22:22:37.205Z,63.82
2022-08-18T22:25:05.194Z,63.85
2022-08-18T22:27:31.834Z,63.93
2022-08-18T22:30:06.593Z,63.68
2022-08-18T22:32:35.553Z,63.65
2022-08-18T22:35:03.572Z,63.50
2022-08-18T22:37:34.928Z,64.27
2022-08-18T22:40:05.494Z,63.76
2022-08-18T22:42:33.572Z,64.09
2022-08-18T22:45:04.631Z,64.03
2022-08-18T22:47:34.083Z,63.60
2022-08-18T22:50:11.044Z,63.92
2022-08-18T22:52:42.006Z,63.53
2022-08-18T22:55:10.099Z,64.09
2022-08-18T22:57:38.435Z,63.39
2022-08-18T23:00:16.893Z,63.33
2022-08-18T23:02:45.103Z,63.40
2022-08-18T23:05:11.915Z,63.17
2022-08-18T23:07:38.696Z,63.00
2022-08-18T23:10:13.442Z,63.67
2022-08-18T23:12:42.660Z,63.39
2022-08-18T23:15:11.326Z,63.40
2022-08-18T23:17:38.114Z,63.25
2022-08-18T23:20:08.466Z,64.11
2022-08-18T23:22:39.076Z,63.74
2022-08-18T23:25:08.949Z,63.99
2022-08-18T23:27:36.729Z,64.30
2022-08-18T23:30:04.918Z,64.72
2022-08-18T23:32:32.292Z,65.70
2022-08-18T23:34:59.149Z,66.15
2022-08-18T23:37:25.757Z,65.95
2022-08-18T23:39:52.417Z,66.48
2022-08-18T23:42:19.110Z,66.58
2022-08-18T23:44:49.739Z,66.37
2022-08-18T23:47:19.675Z,66.32
2022-08-18T23:49:46.810Z,67.19
2022-08-18T23:52:13.431Z,67.08
2022-08-18T23:54:40.040Z,67.21
2022-08-18T23:57:06.674Z,67.62
2022-08-18T23:59:33.385Z,67.53
